Time;durP1;ratioP1;P1;durP2;ratioP2;P2;SDS_P1;SDS_P2;PMS_P1;PMS_P2;Temp;Humidity;BMP_temperature;BMP_pressure;BME280_temperature;BME280_humidity;BME280_pressure;Samples;Min_cycle;Max_cycle;Signal;HPM_P1;HPM_P2
2022/04/19 00:01:11;;;;;;;7.03;2.55;;;8.30;99.90;;;;;;5099945;28;20119;-59
2022/04/19 00:03:37;;;;;;;12.40;2.90;;;8.40;99.90;;;;;;5105809;28;20119;-59
2022/04/19 00:06:03;;;;;;;10.38;2.65;;;8.40;99.90;;;;;;5105593;28;20028;-59
2022/04/19 00:08:29;;;;;;;6.22;2.22;;;8.40;99.90;;;;;;5107624;28;20040;-59
2022/04/19 00:10:55;;;;;;;12.10;3.08;;;8.40;99.90;;;;;;5105598;28;20027;-59
2022/04/19 00:13:20;;;;;;;8.65;2.55;;;8.40;99.90;;;;;;5106166;28;20067;-59
2022/04/19 00:15:46;;;;;;;10.52;3.13;;;8.40;99.90;;;;;;5100881;28;20059;-58
2022/04/19 00:18:12;;;;;;;6.40;2.50;;;8.40;99.90;;;;;;5101330;28;20369;-59
2022/04/19 00:20:42;;;;;;;10.85;2.60;;;8.40;99.90;;;;;;5108307;28;20024;-59
2022/04/19 00:23:15;;;;;;;10.13;3.22;;;8.50;99.90;;;;;;5107693;28;20139;-59
2022/04/19 00:25:43;;;;;;;7.88;2.55;;;8.50;99.90;;;;;;5105207;28;20024;-58
2022/04/19 00:28:10;;;;;;;9.60;2.35;;;8.50;99.90;;;;;;5104907;28;20379;-59
2022/04/19 00:30:36;;;;;;;13.18;2.58;;;8.50;99.90;;;;;;5101822;28;20055;-59
2022/04/19 00:33:03;;;;;;;12.43;3.20;;;8.50;99.90;;;;;;5105856;28;20422;-59
2022/04/19 00:35:29;;;;;;;7.22;3.05;;;8.50;99.90;;;;;;5104077;28;20016;-59
2022/04/19 00:37:54;;;;;;;9.70;2.28;;;8.40;99.90;;;;;;5107127;28;20415;-59
2022/04/19 00:40:21;;;;;;;11.65;2.33;;;8.50;99.90;;;;;;5109784;28;20375;-59
2022/04/19 00:42:47;;;;;;;7.47;1.85;;;8.50;99.90;;;;;;5103845;28;20043;-59
2022/04/19 00:45:13;;;;;;;10.70;2.33;;;8.50;99.90;;;;;;5107473;28;20487;-59
2022/04/19 00:47:40;;;;;;;6.40;2.00;;;8.50;99.90;;;;;;5104420;28;20118;-59
2022/04/19 00:50:07;;;;;;;6.93;2.90;;;8.50;99.90;;;;;;5105711;28;20627;-59
2022/04/19 00:52:37;;;;;;;10.10;2.45;;;8.50;99.90;;;;;;5102609;28;20463;-59
2022/04/19 00:55:04;;;;;;;6.55;2.08;;;8.40;99.90;;;;;;5106717;28;20036;-59
2022/04/19 00:57:32;;;;;;;10.38;2.45;;;8.40;99.90;;;;;;5104572;28;20024;-59
2022/04/19 00:59:58;;;;;;;6.65;2.60;;;8.40;99.90;;;;;;5105784;28;20084;-59
2022/04/19 01:02:25;;;;;;;9.15;1.92;;;8.40;99.90;;;;;;5097916;28;20028;-59
2022/04/19 01:04:51;;;;;;;7.10;2.10;;;8.40;99.90;;;;;;5103839;28;20023;-59
2022/04/19 01:07:20;;;;;;;6.55;2.38;;;8.40;99.90;;;;;;5103140;28;20017;-59
2022/04/19 01:09:47;;;;;;;8.25;2.20;;;8.40;99.90;;;;;;5105243;28;20427;-59
2022/04/19 01:15:09;;;;;;;7.22;2.00;;;8.20;99.90;;;;;;5104910;28;20518;-60
2022/04/19 01:17:39;;;;;;;2.72;2.05;;;8.30;99.90;;;;;;5107596;28;20028;-60
2022/04/19 01:20:07;;;;;;;6.57;2.08;;;8.20;99.90;;;;;;5105084;28;20026;-60
2022/04/19 01:22:40;;;;;;;7.05;2.20;;;8.20;99.90;;;;;;5107060;28;20038;-60
2022/04/19 01:25:07;;;;;;;4.53;2.13;;;8.30;99.90;;;;;;5105419;28;20018;-60
2022/04/19 01:27:33;;;;;;;7.97;2.17;;;8.30;99.90;;;;;;5104125;28;20194;-60
2022/04/19 01:30:04;;;;;;;4.80;2.00;;;8.30;99.90;;;;;;5107411;28;20030;-60
2022/04/19 01:32:33;;;;;;;8.15;3.00;;;8.30;99.90;;;;;;5101899;28;20022;-60
2022/04/19 01:35:12;;;;;;;5.43;1.85;;;8.30;99.90;;;;;;5103186;28;20024;-59
2022/04/19 01:37:46;;;;;;;4.93;1.60;;;8.30;99.90;;;;;;5104982;28;20031;-60
2022/04/19 01:40:18;;;;;;;6.38;1.70;;;8.30;99.90;;;;;;5106918;28;20031;-59
2022/04/19 01:43:14;;;;;;;7.10;2.00;;;8.30;99.90;;;;;;5102225;28;20032;-59
2022/04/19 01:45:41;;;;;;;5.93;2.00;;;8.30;99.90;;;;;;5091957;28;20048;-59
2022/04/19 01:48:08;;;;;;;8.13;1.87;;;8.30;99.90;;;;;;5101897;28;20020;-60
2022/04/19 01:50:37;;;;;;;6.00;1.88;;;8.40;99.90;;;;;;5106384;28;20039;-59
2022/04/19 01:53:03;;;;;;;7.40;2.17;;;8.40;99.90;;;;;;5103731;28;20118;-60
2022/04/19 01:55:29;;;;;;;6.60;2.05;;;8.40;99.90;;;;;;5105343;28;20106;-59
2022/04/19 01:57:56;;;;;;;4.93;1.83;;;8.40;99.90;;;;;;5102777;28;20028;-60
2022/04/19 02:00:24;;;;;;;4.07;2.05;;;8.50;99.90;;;;;;5104682;28;20047;-59
2022/04/19 02:02:51;;;;;;;3.13;1.80;;;8.40;99.90;;;;;;5105822;28;20020;-59
2022/04/19 02:05:17;;;;;;;4.82;2.35;;;8.40;99.90;;;;;;5104577;28;20032;-60
2022/04/19 02:07:46;;;;;;;6.15;1.60;;;8.40;99.90;;;;;;5104016;28;20046;-59
2022/04/19 02:10:14;;;;;;;5.32;1.60;;;8.40;99.90;;;;;;5103576;28;20043;-59
2022/04/19 02:12:40;;;;;;;4.07;1.98;;;8.40;99.90;;;;;;5104451;28;20028;-59
2022/04/19 02:15:07;;;;;;;9.02;1.73;;;8.30;99.90;;;;;;5105219;28;20059;-59
2022/04/19 02:17:33;;;;;;;7.88;2.17;;;8.30;99.90;;;;;;5100298;28;20031;-59
2022/04/19 02:20:04;;;;;;;4.75;1.80;;;8.30;99.90;;;;;;5102842;28;20077;-60
2022/04/19 02:22:30;;;;;;;3.72;1.48;;;8.20;99.90;;;;;;5103056;28;20102;-59
2022/04/19 02:24:58;;;;;;;7.68;1.83;;;8.20;99.90;;;;;;5107948;28;20016;-60
2022/04/19 02:27:24;;;;;;;3.67;1.80;;;8.20;99.90;;;;;;5112266;28;20030;-59
2022/04/19 02:29:50;;;;;;;6.57;2.25;;;8.20;99.90;;;;;;5108288;28;20116;-59
2022/04/19 02:32:16;;;;;;;4.90;1.80;;;8.20;99.90;;;;;;5107131;28;20024;-59
2022/04/19 02:34:42;;;;;;;5.22;1.77;;;8.20;99.90;;;;;;5112206;28;20051;-59
2022/04/19 02:37:08;;;;;;;6.75;1.80;;;8.10;99.90;;;;;;5112941;28;20337;-59
2022/04/19 02:39:36;;;;;;;8.15;2.20;;;8.10;99.90;;;;;;5112544;28;20046;-59
2022/04/19 02:42:03;;;;;;;4.07;1.83;;;8.10;99.90;;;;;;5100752;28;20026;-59
2022/04/19 02:44:29;;;;;;;5.80;2.17;;;8.10;99.90;;;;;;5113043;28;20156;-59
2022/04/19 02:46:55;;;;;;;3.15;1.70;;;8.10;99.90;;;;;;5113043;28;20118;-59
2022/04/19 02:49:21;;;;;;;3.85;1.63;;;8.10;99.90;;;;;;5113140;28;20035;-59
2022/04/19 02:51:47;;;;;;;5.20;1.80;;;8.10;99.90;;;;;;5113313;28;20081;-59
2022/04/19 02:54:13;;;;;;;4.50;1.55;;;8.10;99.90;;;;;;5097607;28;20511;-59
2022/04/19 02:56:39;;;;;;;5.28;1.95;;;8.10;99.90;;;;;;5096818;28;20043;-59
2022/04/19 02:59:04;;;;;;;4.38;1.50;;;8.10;99.90;;;;;;5097655;28;20479;-59
2022/04/19 03:01:30;;;;;;;4.78;2.08;;;8.00;99.90;;;;;;5103875;28;20028;-59
2022/04/19 03:03:57;;;;;;;7.72;2.75;;;8.00;99.90;;;;;;5111012;28;20032;-59
2022/04/19 03:06:23;;;;;;;6.65;1.83;;;7.90;99.90;;;;;;5092807;28;20514;-59
2022/04/19 03:08:49;;;;;;;4.30;1.77;;;7.90;99.90;;;;;;5091064;28;20657;-59
2022/04/19 03:11:15;;;;;;;2.53;1.48;;;7.90;99.90;;;;;;5095075;28;20060;-59
2022/04/19 03:13:41;;;;;;;5.43;2.05;;;7.90;99.90;;;;;;5102327;28;20505;-59
2022/04/19 03:16:08;;;;;;;5.93;1.90;;;7.90;99.90;;;;;;5092406;28;20043;-59
2022/04/19 03:18:34;;;;;;;8.30;1.80;;;7.80;99.90;;;;;;5101349;28;20030;-59
2022/04/19 03:21:00;;;;;;;5.22;1.80;;;7.80;99.90;;;;;;5110663;28;20111;-59
2022/04/19 03:28:53;;;;;;;4.13;1.50;;;7.70;99.90;;;;;;5112850;28;20059;-59
2022/04/19 03:31:22;;;;;;;8.30;2.17;;;7.70;99.90;;;;;;5111383;28;20031;-59
2022/04/19 03:33:54;;;;;;;9.30;2.50;;;7.70;99.90;;;;;;5111673;28;20471;-59
2022/04/19 03:36:22;;;;;;;6.50;1.75;;;7.60;99.90;;;;;;5107149;28;20534;-59
2022/04/19 03:38:48;;;;;;;7.18;2.13;;;7.60;99.90;;;;;;5111952;28;20024;-59
2022/04/19 03:41:13;;;;;;;3.70;1.85;;;7.60;99.90;;;;;;5106435;28;20077;-59
2022/04/19 03:43:41;;;;;;;7.05;1.95;;;7.60;99.90;;;;;;5108863;28;20037;-59
2022/04/19 03:46:08;;;;;;;3.20;1.70;;;7.60;99.90;;;;;;5101508;28;20031;-59
2022/04/19 03:48:34;;;;;;;6.15;2.10;;;7.60;99.90;;;;;;5105541;28;20100;-59
2022/04/19 03:50:59;;;;;;;5.57;1.88;;;7.60;99.90;;;;;;5102608;28;20020;-59
2022/04/19 03:53:25;;;;;;;5.95;1.60;;;7.60;99.90;;;;;;5099729;28;20032;-59
2022/04/19 03:55:51;;;;;;;4.35;2.22;;;7.60;99.90;;;;;;5102519;28;20020;-60
2022/04/19 03:58:17;;;;;;;8.02;2.05;;;7.50;99.90;;;;;;5099511;28;20028;-59
2022/04/19 04:00:42;;;;;;;6.43;2.08;;;7.50;99.90;;;;;;5105769;28;20356;-59
2022/04/19 04:03:08;;;;;;;7.55;1.83;;;7.50;99.90;;;;;;5101515;28;20069;-59
2022/04/19 04:05:34;;;;;;;9.07;1.80;;;7.50;99.90;;;;;;5110875;28;20512;-59
2022/04/19 04:08:00;;;;;;;4.88;2.10;;;7.40;99.90;;;;;;5098395;28;20530;-59
2022/04/19 04:10:26;;;;;;;7.88;1.88;;;7.40;99.90;;;;;;5095157;28;20406;-59
2022/04/19 04:12:51;;;;;;;5.88;1.92;;;7.40;99.90;;;;;;5094915;28;20038;-59
2022/04/19 04:15:17;;;;;;;9.88;2.30;;;7.40;99.90;;;;;;5094018;28;20681;-59
2022/04/19 04:17:43;;;;;;;5.22;1.60;;;7.40;99.90;;;;;;5100930;28;20045;-59
2022/04/19 04:20:09;;;;;;;7.32;1.90;;;7.40;99.90;;;;;;5101461;28;20484;-59
2022/04/19 04:22:35;;;;;;;8.57;2.72;;;7.40;99.90;;;;;;5099771;28;20020;-59
2022/04/19 04:25:02;;;;;;;7.38;2.15;;;7.40;99.90;;;;;;5104552;28;20039;-59
2022/04/19 04:27:27;;;;;;;5.80;1.80;;;7.40;99.90;;;;;;5101913;28;20038;-59
2022/04/19 04:29:53;;;;;;;8.85;1.70;;;7.30;99.90;;;;;;5099487;28;20016;-58
2022/04/19 04:32:19;;;;;;;5.30;2.08;;;7.30;99.90;;;;;;5102548;28;20465;-59
2022/04/19 04:34:45;;;;;;;6.22;1.95;;;7.30;99.90;;;;;;5103241;28;20475;-59
2022/04/19 04:37:10;;;;;;;5.28;2.13;;;7.20;99.90;;;;;;5100551;28;20031;-60
2022/04/19 04:39:36;;;;;;;3.67;1.90;;;7.20;99.90;;;;;;5096679;28;20108;-59
2022/04/19 04:42:02;;;;;;;6.38;1.70;;;7.10;99.90;;;;;;5101037;28;20032;-59
2022/04/19 04:44:28;;;;;;;5.85;1.95;;;7.10;99.90;;;;;;5100996;28;20028;-59
2022/04/19 04:49:41;;;;;;;10.02;2.30;;;7.10;99.90;;;;;;5104175;28;20061;-59
2022/04/19 04:52:08;;;;;;;7.25;3.17;;;7.10;99.90;;;;;;5104834;28;20058;-59
2022/04/19 04:54:35;;;;;;;10.13;2.40;;;7.10;99.90;;;;;;5106641;28;20034;-59
2022/04/19 04:57:03;;;;;;;7.57;2.28;;;7.10;99.90;;;;;;5105899;28;20026;-59
2022/04/19 04:59:29;;;;;;;5.63;2.15;;;7.10;99.90;;;;;;5103536;28;20080;-59
2022/04/19 05:01:55;;;;;;;6.28;2.35;;;7.20;99.90;;;;;;5104256;28;20063;-59
2022/04/19 05:04:21;;;;;;;4.63;1.92;;;7.10;99.90;;;;;;5104302;28;20059;-60
2022/04/19 05:06:47;;;;;;;5.75;2.00;;;7.20;99.90;;;;;;5105745;28;20051;-59
2022/04/19 05:09:12;;;;;;;5.78;2.42;;;7.20;99.90;;;;;;5105069;28;20035;-59
2022/04/19 05:11:39;;;;;;;5.30;2.15;;;7.20;99.90;;;;;;5105923;28;20084;-59
2022/04/19 05:14:05;;;;;;;6.53;2.30;;;7.30;99.90;;;;;;5102237;28;20430;-60
2022/04/19 05:16:31;;;;;;;7.32;2.03;;;7.20;99.90;;;;;;5102360;28;20028;-59
2022/04/19 05:18:57;;;;;;;3.97;1.90;;;7.20;99.90;;;;;;5101938;28;20034;-60
2022/04/19 05:21:22;;;;;;;6.75;2.15;;;7.20;99.90;;;;;;5102276;28;20103;-59
2022/04/19 05:23:48;;;;;;;11.18;2.50;;;7.30;99.90;;;;;;5098966;28;20036;-59
2022/04/19 05:26:14;;;;;;;4.70;2.20;;;7.30;99.90;;;;;;5102690;28;20501;-59
2022/04/19 05:28:39;;;;;;;8.73;2.53;;;7.30;99.90;;;;;;5105262;28;20483;-59
2022/04/19 05:31:05;;;;;;;7.40;1.73;;;7.30;99.90;;;;;;5104804;28;20023;-60
2022/04/19 05:33:31;;;;;;;6.00;1.98;;;7.20;99.90;;;;;;5106296;28;20055;-59
2022/04/19 05:35:56;;;;;;;5.70;2.10;;;7.20;99.90;;;;;;5106916;28;20031;-59
2022/04/19 05:38:22;;;;;;;4.55;2.05;;;7.20;99.90;;;;;;5103828;28;20023;-59
2022/04/19 05:40:48;;;;;;;7.93;2.50;;;7.20;99.90;;;;;;5101778;28;20054;-59
2022/04/19 05:43:13;;;;;;;5.22;1.95;;;7.20;99.90;;;;;;5103185;28;20120;-59
2022/04/19 05:45:39;;;;;;;4.63;2.50;;;7.20;99.90;;;;;;5103628;28;20024;-59
2022/04/19 05:48:05;;;;;;;4.80;1.95;;;7.30;99.90;;;;;;5105423;28;20036;-59
2022/04/19 05:50:31;;;;;;;4.85;2.22;;;7.30;99.90;;;;;;5101790;28;20569;-59
2022/04/19 05:52:57;;;;;;;4.43;1.92;;;7.30;99.90;;;;;;5101807;28;20055;-59
2022/04/19 05:55:23;;;;;;;2.80;1.83;;;7.30;99.90;;;;;;5102304;28;20132;-59
2022/04/19 05:57:49;;;;;;;5.82;2.20;;;7.40;99.90;;;;;;5101054;28;20027;-59
2022/04/19 06:00:15;;;;;;;4.47;1.80;;;7.40;99.90;;;;;;5100471;28;20031;-59
2022/04/19 06:05:25;;;;;;;10.35;2.00;;;7.60;99.90;;;;;;5104020;28;20050;-59
2022/04/19 06:07:52;;;;;;;6.30;1.92;;;7.80;99.90;;;;;;5102319;28;20020;-59
2022/04/19 06:10:18;;;;;;;3.75;1.67;;;7.90;99.90;;;;;;5101435;28;20510;-59
2022/04/19 06:12:44;;;;;;;7.63;1.63;;;7.90;99.90;;;;;;5101153;28;20028;-59
2022/04/19 06:15:11;;;;;;;6.90;2.47;;;8.00;99.90;;;;;;5100531;28;20457;-59
2022/04/19 06:17:38;;;;;;;5.07;1.90;;;8.00;99.90;;;;;;5104222;27;20031;-59
2022/04/19 06:20:05;;;;;;;8.77;2.07;;;8.10;99.90;;;;;;5103131;28;20166;-59
2022/04/19 06:22:32;;;;;;;7.93;2.40;;;8.30;99.90;;;;;;5105327;28;20024;-59
2022/04/19 06:24:58;;;;;;;3.13;1.88;;;8.40;99.90;;;;;;5111949;28;20633;-59
2022/04/19 06:27:24;;;;;;;4.57;1.88;;;8.50;99.90;;;;;;5111292;28;20023;-59
2022/04/19 06:29:52;;;;;;;7.65;1.95;;;8.60;99.90;;;;;;5111424;28;20049;-59
2022/04/19 06:32:18;;;;;;;5.88;2.30;;;8.80;99.90;;;;;;5110676;28;20529;-60
2022/04/19 06:34:44;;;;;;;7.55;2.17;;;8.90;99.90;;;;;;5110402;27;20030;-59
2022/04/19 06:37:10;;;;;;;8.07;2.88;;;9.10;99.90;;;;;;5111874;28;20653;-59
2022/04/19 06:39:36;;;;;;;8.60;2.45;;;9.20;99.90;;;;;;5110449;28;20028;-60
2022/04/19 06:42:02;;;;;;;4.47;2.47;;;9.30;99.90;;;;;;5103491;28;20028;-59
2022/04/19 06:44:28;;;;;;;5.65;2.28;;;9.50;99.90;;;;;;5103914;28;20374;-60
2022/04/19 06:46:53;;;;;;;6.70;1.88;;;9.60;99.90;;;;;;5105370;28;20419;-59
2022/04/19 06:49:19;;;;;;;4.78;1.67;;;9.80;99.90;;;;;;5100934;28;20081;-58
2022/04/19 06:51:45;;;;;;;6.95;2.05;;;9.70;99.90;;;;;;5105923;28;20479;-59
2022/04/19 06:54:12;;;;;;;7.00;2.15;;;9.80;99.90;;;;;;5102309;28;20065;-60
2022/04/19 06:56:38;;;;;;;5.63;1.87;;;9.80;99.90;;;;;;5102561;28;20526;-59
2022/04/19 06:59:04;;;;;;;9.02;3.20;;;9.90;99.90;;;;;;5112134;28;20070;-59
2022/04/19 07:01:30;;;;;;;10.68;2.03;;;9.90;99.90;;;;;;5111296;28;20056;-60
2022/04/19 07:03:56;;;;;;;4.03;1.63;;;10.00;99.90;;;;;;5100973;28;20080;-59
2022/04/19 07:06:22;;;;;;;5.22;1.80;;;10.20;99.90;;;;;;5112086;28;20027;-59
2022/04/19 07:08:48;;;;;;;3.15;2.05;;;10.20;99.90;;;;;;5106716;28;20031;-59
2022/04/19 07:11:15;;;;;;;5.25;2.03;;;10.30;99.90;;;;;;5102909;28;20032;-59
2022/04/19 07:13:42;;;;;;;4.18;2.03;;;10.30;99.90;;;;;;5111711;28;20585;-59
2022/04/19 07:16:09;;;;;;;5.43;2.40;;;10.40;99.90;;;;;;5098251;28;20540;-59
2022/04/19 07:18:35;;;;;;;4.45;1.98;;;10.50;99.90;;;;;;5099152;28;20407;-59
2022/04/19 07:26:40;;;;;;;6.38;2.30;;;10.70;99.90;;;;;;5111239;28;20329;-60
2022/04/19 07:29:13;;;;;;;;;;;10.60;99.90;;;;;;5102073;28;20043;-59
2022/04/19 07:31:40;;;;;;;7.32;2.10;;;10.80;99.90;;;;;;5091767;28;19930;-59
2022/04/19 07:34:06;;;;;;;13.30;3.42;;;10.90;99.90;;;;;;5111078;28;20027;-59
2022/04/19 07:36:35;;;;;;;8.63;2.60;;;11.00;99.90;;;;;;5092497;28;20119;-59
2022/04/19 07:39:03;;;;;;;6.10;2.20;;;11.00;99.90;;;;;;5106901;28;20107;-59
2022/04/19 07:41:30;;;;;;;7.18;2.53;;;11.00;99.90;;;;;;5094541;28;20111;-60
2022/04/19 07:43:55;;;;;;;6.38;2.40;;;11.00;99.90;;;;;;5099495;28;20072;-60
2022/04/19 07:46:21;;;;;;;9.75;2.83;;;11.20;99.90;;;;;;5110079;28;20031;-59
2022/04/19 07:48:48;;;;;;;9.43;3.65;;;11.30;99.90;;;;;;5111061;28;20027;-60
2022/04/19 07:51:15;;;;;;;8.63;2.83;;;11.40;99.90;;;;;;5107587;28;20032;-58
2022/04/19 07:53:41;;;;;;;7.78;2.47;;;11.40;99.90;;;;;;5102187;28;20031;-59
2022/04/19 07:56:07;;;;;;;4.32;2.38;;;11.50;99.90;;;;;;5097202;28;20024;-58
2022/04/19 07:58:33;;;;;;;6.57;2.25;;;11.70;99.90;;;;;;5098692;28;20125;-58
2022/04/19 08:01:00;;;;;;;5.07;2.65;;;11.80;99.90;;;;;;5089318;28;20473;-58
2022/04/19 08:03:26;;;;;;;9.48;2.78;;;12.00;99.90;;;;;;5095184;28;20032;-59
2022/04/19 08:05:52;;;;;;;10.57;2.78;;;12.10;99.90;;;;;;5102099;28;20039;-59
2022/04/19 08:08:18;;;;;;;11.98;2.72;;;12.30;98.80;;;;;;5106397;28;20036;-59
2022/04/19 08:10:48;;;;;;;5.75;2.88;;;12.20;99.90;;;;;;5103415;28;20507;-58
2022/04/19 08:13:14;;;;;;;5.53;2.63;;;12.30;99.50;;;;;;5097292;28;20032;-59
2022/04/19 08:15:40;;;;;;;5.45;3.03;;;12.50;99.30;;;;;;5102056;28;20040;-59
2022/04/19 08:18:07;;;;;;;7.50;3.33;;;12.50;99.40;;;;;;5098339;28;20450;-59
2022/04/19 08:20:33;;;;;;;8.90;3.33;;;12.50;99.00;;;;;;5107650;28;20111;-61
2022/04/19 08:22:59;;;;;;;6.07;3.10;;;12.60;98.40;;;;;;5107239;28;21809;-61
2022/04/19 08:25:25;;;;;;;8.05;3.65;;;12.70;98.30;;;;;;5100757;28;20031;-61
2022/04/19 08:27:52;;;;;;;6.13;2.90;;;12.70;99.10;;;;;;5103864;28;20058;-59
2022/04/19 08:30:18;;;;;;;8.13;3.00;;;12.80;98.20;;;;;;5099342;28;20292;-60
2022/04/19 08:32:48;;;;;;;8.03;3.07;;;12.80;98.80;;;;;;5113753;28;20110;-60
2022/04/19 08:35:14;;;;;;;9.20;3.35;;;13.00;98.30;;;;;;5114809;28;20343;-60
2022/04/19 08:37:40;;;;;;;13.88;3.97;;;12.90;97.70;;;;;;5093375;28;20054;-61
2022/04/19 08:40:07;;;;;;;12.05;3.88;;;13.20;98.80;;;;;;5095677;28;20073;-60
2022/04/19 08:42:35;;;;;;;7.57;3.20;;;13.20;97.50;;;;;;5114950;28;20023;-61
2022/04/19 08:45:02;;;;;;;10.57;3.47;;;13.10;98.70;;;;;;5109576;28;20400;-61
2022/04/19 08:47:30;;;;;;;13.60;3.60;;;13.20;98.10;;;;;;5109388;28;20084;-61
2022/04/19 08:49:56;;;;;;;8.75;3.50;;;13.20;97.80;;;;;;5107987;28;20031;-62
2022/04/19 08:52:22;;;;;;;11.30;3.28;;;13.20;97.80;;;;;;5106053;28;20031;-62
2022/04/19 08:57:34;;;;;;;13.25;3.75;;;13.40;98.40;;;;;;5114644;28;20027;-61
2022/04/19 09:00:01;;;;;;;7.68;3.60;;;13.60;96.70;;;;;;5104716;28;20036;-62
2022/04/19 09:02:29;;;;;;;5.35;3.03;;;13.50;96.70;;;;;;5103885;28;20024;-62
2022/04/19 09:05:10;;;;;;;7.53;3.20;;;13.50;97.30;;;;;;5102569;28;20506;-63
2022/04/19 09:07:37;;;;;;;7.82;3.63;;;13.80;96.40;;;;;;5103978;28;20114;-62
